sensor_id;sensor_type;location;lat;lon;timestamp;pressure;altitude;pressure_sealevel;temperature;humidity
39267;BME280;24967;51.154;13.812;2022-07-29T00:02:26;99662.09;;;17.81;47.83
39267;BME280;24967;51.154;13.812;2022-07-29T00:04:52;99661.31;;;17.45;48.05
39267;BME280;24967;51.154;13.812;2022-07-29T00:07:19;99659.00;;;17.42;48.15
39267;BME280;24967;51.154;13.812;2022-07-29T00:09:46;99664.31;;;17.35;47.96
39267;BME280;24967;51.154;13.812;2022-07-29T00:12:14;99668.44;;;17.31;47.84
39267;BME280;24967;51.154;13.812;2022-07-29T00:14:41;99668.47;;;17.16;48.07
39267;BME280;24967;51.154;13.812;2022-07-29T00:17:08;99669.47;;;17.15;47.99
39267;BME280;24967;51.154;13.812;2022-07-29T00:19:34;99668.66;;;17.14;47.82
39267;BME280;24967;51.154;13.812;2022-07-29T00:22:01;99670.50;;;17.14;48.01
39267;BME280;24967;51.154;13.812;2022-07-29T00:24:28;99662.84;;;17.11;48.30
39267;BME280;24967;51.154;13.812;2022-07-29T00:26:55;99668.38;;;17.09;48.14
39267;BME280;24967;51.154;13.812;2022-07-29T00:29:23;99665.69;;;17.09;47.99
39267;BME280;24967;51.154;13.812;2022-07-29T00:31:50;99648.97;;;17.07;47.97
39267;BME280;24967;51.154;13.812;2022-07-29T00:34:17;99647.66;;;17.03;48.03
39267;BME280;24967;51.154;13.812;2022-07-29T00:37:12;99649.81;;;16.93;48.54
39267;BME280;24967;51.154;13.812;2022-07-29T00:39:39;99639.66;;;16.88;48.78
39267;BME280;24967;51.154;13.812;2022-07-29T00:42:06;99632.59;;;16.87;48.74
39267;BME280;24967;51.154;13.812;2022-07-29T00:44:37;99643.06;;;16.82;48.93
39267;BME280;24967;51.154;13.812;2022-07-29T00:47:04;99642.00;;;16.77;49.10
39267;BME280;24967;51.154;13.812;2022-07-29T00:49:31;99635.94;;;16.75;49.11
39267;BME280;24967;51.154;13.812;2022-07-29T00:51:58;99634.78;;;16.77;49.34
39267;BME280;24967;51.154;13.812;2022-07-29T00:54:26;99636.78;;;16.75;49.63
39267;BME280;24967;51.154;13.812;2022-07-29T00:56:55;99631.59;;;16.74;49.55
39267;BME280;24967;51.154;13.812;2022-07-29T00:59:22;99629.84;;;16.66;49.50
39267;BME280;24967;51.154;13.812;2022-07-29T01:01:51;99628.13;;;16.58;49.73
39267;BME280;24967;51.154;13.812;2022-07-29T01:04:17;99624.41;;;16.59;49.70
39267;BME280;24967;51.154;13.812;2022-07-29T01:06:44;99626.44;;;16.57;49.85
39267;BME280;24967;51.154;13.812;2022-07-29T01:09:11;99618.13;;;16.52;49.85
39267;BME280;24967;51.154;13.812;2022-07-29T01:11:39;99613.75;;;16.51;49.91
39267;BME280;24967;51.154;13.812;2022-07-29T01:14:06;99613.13;;;16.49;49.95
39267;BME280;24967;51.154;13.812;2022-07-29T01:16:39;99610.81;;;16.46;50.19
39267;BME280;24967;51.154;13.812;2022-07-29T01:19:19;99602.66;;;16.39;50.57
39267;BME280;24967;51.154;13.812;2022-07-29T01:21:57;99610.84;;;16.31;50.89
39267;BME280;24967;51.154;13.812;2022-07-29T01:24:34;99600.94;;;16.32;50.82
39267;BME280;24967;51.154;13.812;2022-07-29T01:27:15;99599.44;;;16.29;50.76
39267;BME280;24967;51.154;13.812;2022-07-29T01:29:53;99590.75;;;16.27;51.15
39267;BME280;24967;51.154;13.812;2022-07-29T01:32:26;99597.88;;;16.20;51.43
39267;BME280;24967;51.154;13.812;2022-07-29T01:34:55;99589.56;;;16.15;51.34
39267;BME280;24967;51.154;13.812;2022-07-29T01:37:26;99582.53;;;16.14;51.27
39267;BME280;24967;51.154;13.812;2022-07-29T01:39:56;99588.06;;;16.12;51.13
39267;BME280;24967;51.154;13.812;2022-07-29T01:42:31;99582.91;;;16.11;51.21
39267;BME280;24967;51.154;13.812;2022-07-29T01:45:06;99582.09;;;16.10;51.28
39267;BME280;24967;51.154;13.812;2022-07-29T01:47:40;99589.31;;;16.10;51.47
39267;BME280;24967;51.154;13.812;2022-07-29T01:50:11;99581.59;;;16.07;51.63
39267;BME280;24967;51.154;13.812;2022-07-29T01:52:49;99575.41;;;16.06;51.42
39267;BME280;24967;51.154;13.812;2022-07-29T01:55:20;99584.28;;;16.07;51.43
39267;BME280;24967;51.154;13.812;2022-07-29T01:57:49;99588.56;;;16.01;51.70
39267;BME280;24967;51.154;13.812;2022-07-29T02:00:18;99580.22;;;15.96;52.21
39267;BME280;24967;51.154;13.812;2022-07-29T02:02:46;99585.75;;;15.94;52.58
39267;BME280;24967;51.154;13.812;2022-07-29T02:05:15;99583.72;;;15.96;52.49
39267;BME280;24967;51.154;13.812;2022-07-29T02:07:46;99577.16;;;15.99;52.21
39267;BME280;24967;51.154;13.812;2022-07-29T02:10:15;99580.88;;;15.98;52.14
39267;BME280;24967;51.154;13.812;2022-07-29T02:12:44;99586.88;;;16.00;52.38
39267;BME280;24967;51.154;13.812;2022-07-29T02:15:13;99585.13;;;16.07;52.53
39267;BME280;24967;51.154;13.812;2022-07-29T02:17:47;99585.66;;;16.02;52.70
39267;BME280;24967;51.154;13.812;2022-07-29T02:20:15;99580.97;;;16.05;52.53
39267;BME280;24967;51.154;13.812;2022-07-29T02:22:44;99583.81;;;16.03;52.67
39267;BME280;24967;51.154;13.812;2022-07-29T02:25:12;99576.97;;;16.00;52.79
39267;BME280;24967;51.154;13.812;2022-07-29T02:27:41;99579.66;;;16.00;52.76
39267;BME280;24967;51.154;13.812;2022-07-29T02:30:09;99568.75;;;16.02;52.99
39267;BME280;24967;51.154;13.812;2022-07-29T02:32:40;99575.78;;;16.03;52.99
39267;BME280;24967;51.154;13.812;2022-07-29T02:35:10;99572.09;;;16.04;53.11
39267;BME280;24967;51.154;13.812;2022-07-29T02:37:39;99571.72;;;16.07;53.03
39267;BME280;24967;51.154;13.812;2022-07-29T02:40:10;99573.91;;;16.03;53.34
39267;BME280;24967;51.154;13.812;2022-07-29T02:42:38;99576.59;;;16.03;53.17
39267;BME280;24967;51.154;13.812;2022-07-29T02:45:06;99579.28;;;16.03;53.09
39267;BME280;24967;51.154;13.812;2022-07-29T02:47:36;99585.50;;;16.04;53.44
39267;BME280;24967;51.154;13.812;2022-07-29T02:50:11;99581.13;;;16.03;53.31
39267;BME280;24967;51.154;13.812;2022-07-29T02:52:42;99571.16;;;15.97;53.59
39267;BME280;24967;51.154;13.812;2022-07-29T02:55:15;99582.91;;;15.96;53.84
39267;BME280;24967;51.154;13.812;2022-07-29T02:57:46;99578.19;;;15.98;53.58
39267;BME280;24967;51.154;13.812;2022-07-29T03:00:15;99571.97;;;15.97;53.69
39267;BME280;24967;51.154;13.812;2022-07-29T03:02:44;99578.47;;;16.03;53.76
39267;BME280;24967;51.154;13.812;2022-07-29T03:05:19;99575.78;;;16.03;53.71
39267;BME280;24967;51.154;13.812;2022-07-29T03:07:51;99572.38;;;15.79;54.69
39267;BME280;24967;51.154;13.812;2022-07-29T03:10:20;99574.41;;;15.92;54.48
39267;BME280;24967;51.154;13.812;2022-07-29T03:12:47;99566.34;;;15.92;54.12
39267;BME280;24967;51.154;13.812;2022-07-29T03:15:14;99575.41;;;15.91;53.98
39267;BME280;24967;51.154;13.812;2022-07-29T03:17:41;99573.00;;;15.96;54.25
39267;BME280;24967;51.154;13.812;2022-07-29T03:20:10;99569.03;;;15.92;54.37
39267;BME280;24967;51.154;13.812;2022-07-29T03:22:41;99570.91;;;15.92;54.42
39267;BME280;24967;51.154;13.812;2022-07-29T03:25:09;99575.22;;;15.93;54.48
39267;BME280;24967;51.154;13.812;2022-07-29T03:27:36;99571.34;;;15.95;54.06
39267;BME280;24967;51.154;13.812;2022-07-29T03:30:03;99571.16;;;15.97;54.03
39267;BME280;24967;51.154;13.812;2022-07-29T03:32:30;99569.50;;;15.96;54.21
39267;BME280;24967;51.154;13.812;2022-07-29T03:34:57;99570.78;;;16.00;54.21
39267;BME280;24967;51.154;13.812;2022-07-29T03:37:23;99567.94;;;16.01;53.95
39267;BME280;24967;51.154;13.812;2022-07-29T03:39:52;99566.06;;;16.02;53.95
39267;BME280;24967;51.154;13.812;2022-07-29T03:42:23;99563.19;;;16.03;54.01
39267;BME280;24967;51.154;13.812;2022-07-29T03:44:52;99567.34;;;16.06;54.15
39267;BME280;24967;51.154;13.812;2022-07-29T03:47:22;99558.69;;;16.04;54.45
39267;BME280;24967;51.154;13.812;2022-07-29T03:49:52;99564.50;;;16.08;54.15
39267;BME280;24967;51.154;13.812;2022-07-29T03:52:21;99555.81;;;16.06;54.40
39267;BME280;24967;51.154;13.812;2022-07-29T03:54:48;99560.13;;;16.07;54.34
39267;BME280;24967;51.154;13.812;2022-07-29T03:57:18;99560.34;;;16.05;54.30
39267;BME280;24967;51.154;13.812;2022-07-29T03:59:47;99557.38;;;16.15;54.55
39267;BME280;24967;51.154;13.812;2022-07-29T04:02:14;99554.31;;;16.03;55.58
39267;BME280;24967;51.154;13.812;2022-07-29T04:04:40;99550.66;;;16.04;55.44
39267;BME280;24967;51.154;13.812;2022-07-29T04:07:11;99558.69;;;16.04;55.17
39267;BME280;24967;51.154;13.812;2022-07-29T04:09:38;99551.63;;;16.03;55.08
39267;BME280;24967;51.154;13.812;2022-07-29T04:12:05;99556.84;;;16.05;55.11
39267;BME280;24967;51.154;13.812;2022-07-29T04:14:34;99557.28;;;16.08;54.89
39267;BME280;24967;51.154;13.812;2022-07-29T04:17:01;99565.16;;;16.10;54.92
39267;BME280;24967;51.154;13.812;2022-07-29T04:19:28;99557.75;;;16.12;55.10
39267;BME280;24967;51.154;13.812;2022-07-29T04:21:55;99563.75;;;16.14;55.14
39267;BME280;24967;51.154;13.812;2022-07-29T04:24:22;99566.06;;;16.17;55.19
39267;BME280;24967;51.154;13.812;2022-07-29T04:26:48;99565.88;;;16.18;55.20
39267;BME280;24967;51.154;13.812;2022-07-29T04:29:15;99559.31;;;16.21;55.37
39267;BME280;24967;51.154;13.812;2022-07-29T04:31:43;99566.44;;;16.29;55.40
39267;BME280;24967;51.154;13.812;2022-07-29T04:34:10;99565.56;;;16.43;55.88
39267;BME280;24967;51.154;13.812;2022-07-29T04:36:37;99568.59;;;16.55;55.91
39267;BME280;24967;51.154;13.812;2022-07-29T04:39:04;99567.78;;;16.54;55.75
39267;BME280;24967;51.154;13.812;2022-07-29T04:41:31;99567.97;;;16.53;56.16
39267;BME280;24967;51.154;13.812;2022-07-29T04:43:58;99568.31;;;16.64;56.02
39267;BME280;24967;51.154;13.812;2022-07-29T04:46:26;99567.09;;;16.67;56.11
39267;BME280;24967;51.154;13.812;2022-07-29T04:48:54;99564.69;;;16.72;56.30
39267;BME280;24967;51.154;13.812;2022-07-29T04:51:20;99569.22;;;16.71;56.52
39267;BME280;24967;51.154;13.812;2022-07-29T04:53:47;99566.91;;;16.83;56.61
39267;BME280;24967;51.154;13.812;2022-07-29T04:56:14;99566.66;;;17.00;55.97
39267;BME280;24967;51.154;13.812;2022-07-29T04:58:41;99568.63;;;17.12;56.24
39267;BME280;24967;51.154;13.812;2022-07-29T05:01:07;99567.53;;;17.28;56.22
39267;BME280;24967;51.154;13.812;2022-07-29T05:03:34;99562.00;;;17.36;56.29
39267;BME280;24967;51.154;13.812;2022-07-29T05:06:02;99556.75;;;17.50;55.95
39267;BME280;24967;51.154;13.812;2022-07-29T05:08:29;99560.56;;;17.62;55.34
39267;BME280;24967;51.154;13.812;2022-07-29T05:10:55;99563.31;;;17.69;56.03
39267;BME280;24967;51.154;13.812;2022-07-29T05:13:22;99553.91;;;17.79;55.99
39267;BME280;24967;51.154;13.812;2022-07-29T05:15:49;99550.66;;;17.91;55.07
39267;BME280;24967;51.154;13.812;2022-07-29T05:18:15;99551.72;;;17.96;54.61
39267;BME280;24967;51.154;13.812;2022-07-29T05:20:42;99548.22;;;17.96;54.31
39267;BME280;24967;51.154;13.812;2022-07-29T05:23:10;99549.97;;;18.17;53.91
39267;BME280;24967;51.154;13.812;2022-07-29T05:25:38;99544.31;;;18.05;53.85
39267;BME280;24967;51.154;13.812;2022-07-29T05:28:04;99550.63;;;18.19;53.94
39267;BME280;24967;51.154;13.812;2022-07-29T05:30:31;99556.47;;;18.36;53.69
39267;BME280;24967;51.154;13.812;2022-07-29T05:32:58;99552.63;;;18.58;53.33
39267;BME280;24967;51.154;13.812;2022-07-29T05:35:25;99550.25;;;18.83;53.45
39267;BME280;24967;51.154;13.812;2022-07-29T05:37:51;99559.00;;;19.12;52.96
39267;BME280;24967;51.154;13.812;2022-07-29T05:40:20;99558.59;;;19.48;52.92
39267;BME280;24967;51.154;13.812;2022-07-29T05:42:46;99552.16;;;19.89;51.35
39267;BME280;24967;51.154;13.812;2022-07-29T05:45:13;99557.22;;;20.37;51.29
39267;BME280;24967;51.154;13.812;2022-07-29T05:47:40;99556.31;;;20.95;49.58
39267;BME280;24967;51.154;13.812;2022-07-29T05:50:08;99553.16;;;21.80;48.84
39267;BME280;24967;51.154;13.812;2022-07-29T05:52:35;99558.25;;;22.31;47.85
39267;BME280;24967;51.154;13.812;2022-07-29T05:55:02;99557.94;;;22.88;46.14
39267;BME280;24967;51.154;13.812;2022-07-29T05:57:32;99557.97;;;23.30;44.15
39267;BME280;24967;51.154;13.812;2022-07-29T05:59:59;99561.97;;;23.39;43.94
39267;BME280;24967;51.154;13.812;2022-07-29T06:02:25;99553.00;;;23.39;43.48
39267;BME280;24967;51.154;13.812;2022-07-29T06:04:52;99554.84;;;23.26;43.47
39267;BME280;24967;51.154;13.812;2022-07-29T06:07:19;99558.63;;;23.25;43.62
39267;BME280;24967;51.154;13.812;2022-07-29T06:09:46;99549.41;;;23.15;43.95
39267;BME280;24967;51.154;13.812;2022-07-29T06:12:13;99562.09;;;23.02;44.33
39267;BME280;24967;51.154;13.812;2022-07-29T06:14:41;99555.44;;;22.86;44.28
39267;BME280;24967;51.154;13.812;2022-07-29T06:17:07;99557.03;;;22.94;44.43
39267;BME280;24967;51.154;13.812;2022-07-29T06:19:37;99558.03;;;22.93;44.36
39267;BME280;24967;51.154;13.812;2022-07-29T06:22:05;99552.72;;;22.86;44.89
39267;BME280;24967;51.154;13.812;2022-07-29T06:24:32;99560.50;;;22.83;45.08
39267;BME280;24967;51.154;13.812;2022-07-29T06:27:17;99558.69;;;22.95;44.98
39267;BME280;24967;51.154;13.812;2022-07-29T06:30:13;99559.88;;;22.99;44.80
39267;BME280;24967;51.154;13.812;2022-07-29T06:33:41;99559.31;;;23.09;46.22
39267;BME280;24967;51.154;13.812;2022-07-29T06:36:27;99559.66;;;23.01;46.79
39267;BME280;24967;51.154;13.812;2022-07-29T06:39:16;99558.09;;;22.75;48.29
39267;BME280;24967;51.154;13.812;2022-07-29T06:42:43;99563.75;;;22.73;47.26
39267;BME280;24967;51.154;13.812;2022-07-29T06:45:34;99567.38;;;22.67;47.88
39267;BME280;24967;51.154;13.812;2022-07-29T06:48:28;99568.63;;;22.83;46.89
39267;BME280;24967;51.154;13.812;2022-07-29T06:51:17;99561.69;;;22.87;46.46
39267;BME280;24967;51.154;13.812;2022-07-29T06:54:25;99566.06;;;22.88;46.19
39267;BME280;24967;51.154;13.812;2022-07-29T06:57:58;99567.31;;;23.04;45.95
39267;BME280;24967;51.154;13.812;2022-07-29T07:00:45;99561.69;;;23.17;45.31
39267;BME280;24967;51.154;13.812;2022-07-29T07:03:23;99569.34;;;23.20;45.16
39267;BME280;24967;51.154;13.812;2022-07-29T07:05:49;99576.81;;;23.25;45.08
39267;BME280;24967;51.154;13.812;2022-07-29T07:08:30;99577.03;;;23.23;46.19
39267;BME280;24967;51.154;13.812;2022-07-29T07:11:38;99578.59;;;23.43;46.48
39267;BME280;24967;51.154;13.812;2022-07-29T07:14:12;99585.28;;;23.70;46.08
39267;BME280;24967;51.154;13.812;2022-07-29T07:16:45;99577.97;;;23.83;44.70
39267;BME280;24967;51.154;13.812;2022-07-29T07:19:27;99580.78;;;23.88;44.97
39267;BME280;24967;51.154;13.812;2022-07-29T07:22:15;99581.28;;;23.85;44.48
39267;BME280;24967;51.154;13.812;2022-07-29T07:25:00;99576.06;;;23.83;44.13
39267;BME280;24967;51.154;13.812;2022-07-29T07:27:27;99574.16;;;23.84;44.28
39267;BME280;24967;51.154;13.812;2022-07-29T07:29:56;99572.13;;;24.14;44.20
39267;BME280;24967;51.154;13.812;2022-07-29T07:32:49;99572.25;;;24.08;43.38
39267;BME280;24967;51.154;13.812;2022-07-29T07:35:34;99573.56;;;24.17;43.18
39267;BME280;24967;51.154;13.812;2022-07-29T07:38:18;99574.59;;;24.28;43.20
39267;BME280;24967;51.154;13.812;2022-07-29T07:40:45;99562.78;;;24.34;42.88
39267;BME280;24967;51.154;13.812;2022-07-29T07:43:12;99579.41;;;24.61;42.21
39267;BME280;24967;51.154;13.812;2022-07-29T07:45:39;99570.19;;;24.50;42.52
39267;BME280;24967;51.154;13.812;2022-07-29T07:48:07;99569.34;;;24.61;42.61
39267;BME280;24967;51.154;13.812;2022-07-29T07:50:35;99561.88;;;24.68;42.06
39267;BME280;24967;51.154;13.812;2022-07-29T07:53:02;99566.81;;;24.72;42.59
39267;BME280;24967;51.154;13.812;2022-07-29T07:55:28;99562.03;;;24.90;42.14
39267;BME280;24967;51.154;13.812;2022-07-29T07:57:55;99558.06;;;24.98;42.86
39267;BME280;24967;51.154;13.812;2022-07-29T08:00:22;99552.53;;;25.39;41.60
39267;BME280;24967;51.154;13.812;2022-07-29T08:02:50;99551.44;;;25.56;41.27
39267;BME280;24967;51.154;13.812;2022-07-29T08:05:21;99559.06;;;25.54;41.99
39267;BME280;24967;51.154;13.812;2022-07-29T08:07:47;99551.31;;;25.63;41.74
39267;BME280;24967;51.154;13.812;2022-07-29T08:10:15;99542.69;;;25.71;40.80
39267;BME280;24967;51.154;13.812;2022-07-29T08:13:39;99545.22;;;25.78;39.97
39267;BME280;24967;51.154;13.812;2022-07-29T08:16:09;99536.03;;;25.62;40.74
39267;BME280;24967;51.154;13.812;2022-07-29T08:18:40;99548.06;;;25.83;39.99
39267;BME280;24967;51.154;13.812;2022-07-29T08:21:15;99546.50;;;25.87;39.98
39267;BME280;24967;51.154;13.812;2022-07-29T08:23:42;99545.75;;;25.92;39.01
39267;BME280;24967;51.154;13.812;2022-07-29T08:26:14;99538.28;;;26.04;38.52
39267;BME280;24967;51.154;13.812;2022-07-29T08:28:43;99533.22;;;26.35;38.23
39267;BME280;24967;51.154;13.812;2022-07-29T08:31:36;99534.63;;;26.15;37.50
39267;BME280;24967;51.154;13.812;2022-07-29T08:34:20;99535.34;;;26.49;38.18
39267;BME280;24967;51.154;13.812;2022-07-29T08:36:48;99532.91;;;26.53;37.91
39267;BME280;24967;51.154;13.812;2022-07-29T08:39:28;99532.22;;;26.63;37.49
39267;BME280;24967;51.154;13.812;2022-07-29T08:41:58;99524.81;;;26.58;37.89
39267;BME280;24967;51.154;13.812;2022-07-29T08:44:53;99532.28;;;26.95;37.15
39267;BME280;24967;51.154;13.812;2022-07-29T08:47:33;99530.94;;;27.25;37.51
39267;BME280;24967;51.154;13.812;2022-07-29T08:50:15;99528.63;;;27.44;36.56
39267;BME280;24967;51.154;13.812;2022-07-29T08:53:14;99531.72;;;27.57;36.34
39267;BME280;24967;51.154;13.812;2022-07-29T08:55:42;99529.34;;;27.71;36.17
39267;BME280;24967;51.154;13.812;2022-07-29T08:58:18;99527.63;;;27.97;35.77
39267;BME280;24967;51.154;13.812;2022-07-29T09:01:01;99531.28;;;28.18;35.69
39267;BME280;24967;51.154;13.812;2022-07-29T09:07:10;99525.75;;;28.86;34.95
39267;BME280;24967;51.154;13.812;2022-07-29T09:10:16;99523.34;;;29.41;34.77
39267;BME280;24967;51.154;13.812;2022-07-29T09:12:47;99510.09;;;30.04;34.44
39267;BME280;24967;51.154;13.812;2022-07-29T09:15:17;99512.22;;;30.28;32.21
39267;BME280;24967;51.154;13.812;2022-07-29T09:17:45;99511.25;;;30.58;32.03
39267;BME280;24967;51.154;13.812;2022-07-29T09:20:14;99496.72;;;30.52;31.52
39267;BME280;24967;51.154;13.812;2022-07-29T09:22:41;99499.59;;;30.76;32.18
39267;BME280;24967;51.154;13.812;2022-07-29T09:25:33;99497.28;;;30.99;31.83
39267;BME280;24967;51.154;13.812;2022-07-29T09:28:16;99494.75;;;31.08;30.79
39267;BME280;24967;51.154;13.812;2022-07-29T09:30:50;99491.88;;;30.89;30.95
39267;BME280;24967;51.154;13.812;2022-07-29T09:33:22;99485.66;;;31.07;30.69
39267;BME280;24967;51.154;13.812;2022-07-29T09:36:03;99485.56;;;30.88;30.54
39267;BME280;24967;51.154;13.812;2022-07-29T09:38:37;99478.00;;;31.04;31.60
39267;BME280;24967;51.154;13.812;2022-07-29T09:48:17;99475.59;;;30.53;30.44
39267;BME280;24967;51.154;13.812;2022-07-29T09:50:46;99480.00;;;30.54;30.69
39267;BME280;24967;51.154;13.812;2022-07-29T09:53:31;99484.72;;;30.43;30.82
39267;BME280;24967;51.154;13.812;2022-07-29T09:56:13;99486.09;;;30.46;30.91
39267;BME280;24967;51.154;13.812;2022-07-29T09:58:42;99493.84;;;30.28;31.14
39267;BME280;24967;51.154;13.812;2022-07-29T10:01:08;99490.03;;;30.19;31.17
39267;BME280;24967;51.154;13.812;2022-07-29T10:16:52;99483.44;;;31.14;30.79
39267;BME280;24967;51.154;13.812;2022-07-29T10:19:26;99482.13;;;31.41;30.98
39267;BME280;24967;51.154;13.812;2022-07-29T10:22:05;99489.06;;;31.28;29.80
39267;BME280;24967;51.154;13.812;2022-07-29T10:24:38;99476.47;;;30.93;30.37
39267;BME280;24967;51.154;13.812;2022-07-29T10:27:08;99486.44;;;30.84;30.33
39267;BME280;24967;51.154;13.812;2022-07-29T10:29:35;99480.59;;;30.46;31.01
39267;BME280;24967;51.154;13.812;2022-07-29T10:39:00;99477.50;;;30.63;30.80
39267;BME280;24967;51.154;13.812;2022-07-29T10:45:57;99476.78;;;30.42;31.12
39267;BME280;24967;51.154;13.812;2022-07-29T10:52:16;99465.44;;;30.58;31.48
39267;BME280;24967;51.154;13.812;2022-07-29T10:54:47;99463.41;;;30.74;31.98
39267;BME280;24967;51.154;13.812;2022-07-29T10:57:26;99465.59;;;30.77;30.91
39267;BME280;24967;51.154;13.812;2022-07-29T11:00:28;99471.22;;;29.97;31.70
39267;BME280;24967;51.154;13.812;2022-07-29T11:02:55;99461.78;;;30.19;31.78
39267;BME280;24967;51.154;13.812;2022-07-29T11:05:23;99460.13;;;30.33;31.35
39267;BME280;24967;51.154;13.812;2022-07-29T11:08:28;99463.66;;;30.39;31.45
39267;BME280;24967;51.154;13.812;2022-07-29T11:14:06;99455.06;;;30.50;31.28
39267;BME280;24967;51.154;13.812;2022-07-29T11:17:01;99453.63;;;30.63;31.14
39267;BME280;24967;51.154;13.812;2022-07-29T11:19:34;99446.91;;;30.85;31.18
39267;BME280;24967;51.154;13.812;2022-07-29T11:22:30;99446.09;;;30.84;30.84
39267;BME280;24967;51.154;13.812;2022-07-29T11:25:15;99444.41;;;30.88;30.99
39267;BME280;24967;51.154;13.812;2022-07-29T11:27:43;99451.16;;;30.62;31.50
39267;BME280;24967;51.154;13.812;2022-07-29T11:30:11;99448.03;;;30.73;31.58
39267;BME280;24967;51.154;13.812;2022-07-29T11:32:39;99455.06;;;30.50;31.35
39267;BME280;24967;51.154;13.812;2022-07-29T11:35:14;99451.19;;;30.56;31.46
39267;BME280;24967;51.154;13.812;2022-07-29T11:37:42;99446.03;;;30.89;30.83
39267;BME280;24967;51.154;13.812;2022-07-29T11:40:16;99442.19;;;31.19;30.90
39267;BME280;24967;51.154;13.812;2022-07-29T11:42:48;99430.41;;;31.48;30.58
39267;BME280;24967;51.154;13.812;2022-07-29T11:48:00;99440.63;;;31.42;30.26
39267;BME280;24967;51.154;13.812;2022-07-29T11:50:31;99442.75;;;31.16;30.70
39267;BME280;24967;51.154;13.812;2022-07-29T11:53:00;99448.59;;;31.44;31.33
39267;BME280;24967;51.154;13.812;2022-07-29T11:55:28;99444.25;;;31.86;30.82
39267;BME280;24967;51.154;13.812;2022-07-29T11:57:57;99437.09;;;32.52;29.89
39267;BME280;24967;51.154;13.812;2022-07-29T12:00:29;99433.31;;;32.48;29.53
39267;BME280;24967;51.154;13.812;2022-07-29T12:02:57;99432.69;;;32.32;29.53
39267;BME280;24967;51.154;13.812;2022-07-29T12:05:38;99429.56;;;32.38;29.59
39267;BME280;24967;51.154;13.812;2022-07-29T12:08:14;99434.16;;;31.81;30.14
39267;BME280;24967;51.154;13.812;2022-07-29T12:10:46;99436.09;;;31.57;30.39
39267;BME280;24967;51.154;13.812;2022-07-29T12:13:13;99437.84;;;31.47;30.43
39267;BME280;24967;51.154;13.812;2022-07-29T12:15:41;99433.34;;;31.81;30.44
39267;BME280;24967;51.154;13.812;2022-07-29T12:18:10;99426.03;;;31.95;30.02
39267;BME280;24967;51.154;13.812;2022-07-29T12:20:38;99430.69;;;31.70;30.41
39267;BME280;24967;51.154;13.812;2022-07-29T12:23:07;99426.38;;;31.64;31.08
39267;BME280;24967;51.154;13.812;2022-07-29T12:25:34;99435.38;;;31.70;30.63
39267;BME280;24967;51.154;13.812;2022-07-29T12:28:11;99424.19;;;31.08;31.22
39267;BME280;24967;51.154;13.812;2022-07-29T12:30:41;99425.06;;;31.03;31.18
39267;BME280;24967;51.154;13.812;2022-07-29T12:33:16;99426.69;;;31.34;31.20
39267;BME280;24967;51.154;13.812;2022-07-29T12:35:45;99421.59;;;31.51;30.93
39267;BME280;24967;51.154;13.812;2022-07-29T12:38:12;99420.81;;;31.69;30.85
39267;BME280;24967;51.154;13.812;2022-07-29T12:40:39;99414.44;;;31.98;30.63
39267;BME280;24967;51.154;13.812;2022-07-29T12:43:11;99404.22;;;32.23;30.48
39267;BME280;24967;51.154;13.812;2022-07-29T12:45:40;99412.91;;;31.87;30.48
39267;BME280;24967;51.154;13.812;2022-07-29T12:48:09;99417.88;;;31.85;30.23
39267;BME280;24967;51.154;13.812;2022-07-29T12:51:00;99420.84;;;31.93;30.24
39267;BME280;24967;51.154;13.812;2022-07-29T12:53:31;99418.25;;;32.02;30.56
39267;BME280;24967;51.154;13.812;2022-07-29T12:56:03;99416.16;;;32.13;30.36
39267;BME280;24967;51.154;13.812;2022-07-29T12:58:33;99417.28;;;31.93;30.42
39267;BME280;24967;51.154;13.812;2022-07-29T13:01:05;99414.97;;;31.52;31.07
39267;BME280;24967;51.154;13.812;2022-07-29T13:03:45;99400.91;;;31.30;31.31
39267;BME280;24967;51.154;13.812;2022-07-29T13:06:35;99401.94;;;30.80;31.66
39267;BME280;24967;51.154;13.812;2022-07-29T13:09:07;99400.03;;;30.71;31.74
39267;BME280;24967;51.154;13.812;2022-07-29T13:11:35;99398.06;;;30.47;32.48
39267;BME280;24967;51.154;13.812;2022-07-29T13:14:04;99394.78;;;30.45;32.79
39267;BME280;24967;51.154;13.812;2022-07-29T13:16:31;99403.25;;;30.49;32.54
39267;BME280;24967;51.154;13.812;2022-07-29T13:19:05;99392.28;;;30.44;32.37
39267;BME280;24967;51.154;13.812;2022-07-29T13:21:32;99397.16;;;30.91;32.34
39267;BME280;24967;51.154;13.812;2022-07-29T13:24:04;99390.03;;;31.19;32.13
39267;BME280;24967;51.154;13.812;2022-07-29T13:26:31;99390.97;;;31.34;31.59
39267;BME280;24967;51.154;13.812;2022-07-29T13:28:59;99396.22;;;31.35;31.38
39267;BME280;24967;51.154;13.812;2022-07-29T13:31:28;99393.03;;;31.23;31.95
39267;BME280;24967;51.154;13.812;2022-07-29T13:33:55;99395.41;;;31.06;31.42
39267;BME280;24967;51.154;13.812;2022-07-29T13:36:22;99389.75;;;31.21;31.62
39267;BME280;24967;51.154;13.812;2022-07-29T13:38:48;99387.84;;;31.16;31.50
39267;BME280;24967;51.154;13.812;2022-07-29T13:41:15;99388.63;;;31.22;31.29
39267;BME280;24967;51.154;13.812;2022-07-29T13:43:41;99385.38;;;30.91;31.47
39267;BME280;24967;51.154;13.812;2022-07-29T13:46:08;99375.13;;;31.25;31.71
39267;BME280;24967;51.154;13.812;2022-07-29T13:48:36;99375.88;;;31.60;31.45
39267;BME280;24967;51.154;13.812;2022-07-29T13:51:02;99375.16;;;31.74;30.98
39267;BME280;24967;51.154;13.812;2022-07-29T13:53:28;99381.22;;;31.70;31.04
39267;BME280;24967;51.154;13.812;2022-07-29T13:55:56;99378.19;;;31.53;30.96
39267;BME280;24967;51.154;13.812;2022-07-29T13:58:22;99377.06;;;31.54;31.01
39267;BME280;24967;51.154;13.812;2022-07-29T14:00:49;99377.69;;;31.46;30.89
39267;BME280;24967;51.154;13.812;2022-07-29T14:03:16;99370.03;;;31.43;30.93